createdAt,value
2018-05-07T00:00:58.453Z,23.75
2018-05-07T00:06:53.429Z,21.37
2018-05-07T00:12:48.458Z,23.47
2018-05-07T00:18:43.413Z,22.76
2018-05-07T00:24:38.477Z,24.02
2018-05-07T00:30:33.438Z,23.75
2018-05-07T00:36:28.455Z,20.89
2018-05-07T00:42:23.432Z,22.76
2018-05-07T00:48:18.445Z,22.97
2018-05-07T00:54:13.447Z,23.12
2018-05-07T01:00:08.439Z,25.55
2018-05-07T01:06:03.445Z,28.83
2018-05-07T01:11:58.528Z,21.52
2018-05-07T01:17:53.504Z,24.48
2018-05-07T01:23:48.498Z,26.45
2018-05-07T01:29:43.598Z,25.07
2018-05-07T01:35:38.511Z,25.76
2018-05-07T01:41:33.457Z,24.85
2018-05-07T01:47:28.481Z,29.22
2018-05-07T01:53:23.442Z,34.76
2018-05-07T01:59:18.446Z,35.14
2018-05-07T02:05:13.465Z,34.78
2018-05-07T02:11:08.464Z,34.3
2018-05-07T02:17:03.470Z,33.08
2018-05-07T02:22:58.480Z,36.12
2018-05-07T02:28:53.470Z,32.89
2018-05-07T02:34:48.492Z,37.29
2018-05-07T02:40:43.488Z,45.56
2018-05-07T02:46:38.492Z,44.28
2018-05-07T02:52:33.467Z,37.39
2018-05-07T02:58:28.464Z,48.4
2018-05-07T03:04:23.488Z,48.4
2018-05-07T03:10:18.506Z,48.27
2018-05-07T03:16:13.480Z,51.53
2018-05-07T03:22:08.513Z,50.72
2018-05-07T03:28:03.499Z,52.53
2018-05-07T03:33:58.525Z,56.72
2018-05-07T03:39:53.520Z,49.87
2018-05-07T03:45:48.463Z,54.1
2018-05-07T03:51:43.486Z,49.09
2018-05-07T03:57:38.525Z,49
2018-05-07T04:03:33.513Z,52.47
2018-05-07T04:09:28.495Z,53.6
2018-05-07T04:15:23.495Z,50.63
2018-05-07T04:21:18.501Z,52.74
2018-05-07T04:27:13.507Z,56.27
2018-05-07T04:33:08.508Z,61.03
2018-05-07T04:39:03.486Z,54.3
2018-05-07T04:44:58.506Z,52.43
2018-05-07T04:50:53.531Z,54.7
2018-05-07T04:56:48.525Z,52.26
2018-05-07T05:02:43.500Z,57.39
2018-05-07T05:08:38.528Z,57.27
2018-05-07T05:14:33.515Z,59.41
2018-05-07T05:20:28.487Z,51.28
2018-05-07T05:26:23.502Z,61.06
2018-05-07T05:32:18.493Z,58.61
2018-05-07T05:38:13.516Z,56.6
2018-05-07T05:44:08.494Z,65.79
2018-05-07T05:50:03.586Z,63.83
2018-05-07T05:55:58.563Z,63.08
2018-05-07T06:01:53.541Z,64.45
2018-05-07T06:07:48.515Z,66.53
2018-05-07T06:13:43.605Z,64.81
2018-05-07T06:19:38.619Z,61.8
2018-05-07T06:25:33.553Z,61.4
2018-05-07T06:31:28.535Z,58.8
2018-05-07T06:37:23.515Z,61.8
2018-05-07T06:43:18.544Z,62.91
2018-05-07T06:49:13.527Z,57.24
2018-05-07T06:55:08.562Z,62.11
2018-05-07T07:01:03.543Z,56.91
2018-05-07T07:06:58.648Z,57.07
2018-05-07T07:12:53.555Z,55.03
2018-05-07T07:18:48.549Z,61.18
2018-05-07T07:24:43.515Z,50.37
2018-05-07T07:30:38.561Z,51.31
2018-05-07T07:36:33.547Z,50.93
2018-05-07T07:42:28.547Z,49.53
2018-05-07T07:48:23.584Z,49.14
2018-05-07T07:54:18.593Z,44.02
2018-05-07T08:00:13.715Z,52.33
2018-05-07T08:06:08.516Z,48.53
2018-05-07T08:12:03.658Z,47.03
2018-05-07T08:17:58.569Z,48.76
2018-05-07T08:23:53.543Z,42.34
2018-05-07T08:29:48.571Z,42.08
2018-05-07T08:35:43.539Z,36.98
2018-05-07T08:41:38.707Z,34.76
2018-05-07T08:47:33.550Z,29.54
2018-05-07T08:53:28.561Z,34.13
2018-05-07T08:59:23.566Z,34.74
2018-05-07T09:05:18.575Z,34.68
2018-05-07T09:11:13.559Z,31.75
2018-05-07T09:17:08.568Z,24.93
2018-05-07T09:23:03.564Z,29.81
2018-05-07T09:28:58.642Z,25.65
2018-05-07T09:34:53.561Z,24.9
2018-05-07T09:40:48.568Z,25.35
2018-05-07T09:46:43.610Z,22.08
2018-05-07T09:52:38.603Z,18.05
2018-05-07T09:58:33.633Z,21.94
2018-05-07T10:04:28.577Z,19.95
2018-05-07T10:10:23.597Z,22.64
2018-05-07T10:16:18.634Z,18.84
2018-05-07T10:22:13.645Z,18.55
2018-05-07T10:28:08.595Z,23.13
2018-05-07T10:34:03.606Z,18.83
2018-05-07T10:39:58.587Z,15.55
2018-05-07T10:45:53.699Z,16.09
2018-05-07T10:51:48.637Z,17.73
2018-05-07T10:57:43.584Z,24.25
2018-05-07T11:03:38.606Z,20.96
2018-05-07T11:09:33.682Z,16.43
2018-05-07T11:15:28.644Z,15.63
2018-05-07T11:21:23.594Z,11.53
2018-05-07T11:27:18.620Z,9.44
2018-05-07T11:33:13.645Z,12.68
2018-05-07T11:39:08.600Z,11.01
2018-05-07T11:45:03.720Z,11.82
2018-05-07T11:50:58.623Z,9.36
2018-05-07T11:56:53.643Z,8.83
2018-05-07T12:02:48.675Z,12.03
2018-05-07T12:08:43.600Z,8.73
2018-05-07T12:14:38.601Z,6.51
2018-05-07T12:20:33.649Z,10.32
2018-05-07T12:26:28.635Z,10.71
2018-05-07T12:32:23.656Z,10.59
2018-05-07T12:38:18.678Z,9.44
2018-05-07T12:44:13.639Z,11.12
2018-05-07T12:50:08.632Z,7.9
2018-05-07T12:56:03.659Z,7.88
2018-05-07T13:01:58.701Z,8.52
2018-05-07T13:07:53.643Z,8.49
2018-05-07T13:13:48.693Z,10.71
2018-05-07T13:19:43.660Z,11.34
2018-05-07T13:25:38.650Z,13.03
2018-05-07T13:31:33.702Z,18.13
2018-05-07T13:37:28.677Z,12.13
2018-05-07T13:43:23.711Z,17.34
2018-05-07T13:49:18.676Z,13.26
2018-05-07T13:55:13.706Z,18.42
2018-05-07T14:01:08.667Z,15.41
2018-05-07T14:07:03.694Z,11.84
2018-05-07T14:12:58.713Z,15.01
2018-05-07T14:18:53.689Z,15.83
2018-05-07T14:24:48.662Z,10.34
2018-05-07T14:30:43.715Z,13.65
2018-05-07T14:36:38.701Z,16.33
2018-05-07T14:42:33.676Z,21.04
2018-05-07T14:48:28.743Z,14.07
2018-05-07T14:54:23.665Z,16.3
2018-05-07T15:00:18.671Z,26.82
2018-05-07T15:06:13.672Z,16.66
2018-05-07T15:12:08.715Z,25.16
2018-05-07T15:18:03.697Z,19.91
2018-05-07T15:23:58.722Z,22.28
2018-05-07T15:29:53.708Z,16.74
2018-05-07T15:35:48.700Z,19.99
2018-05-07T15:41:43.708Z,17.81
2018-05-07T15:47:38.671Z,18.56
2018-05-07T15:53:33.711Z,17.13
2018-05-07T15:59:28.714Z,18.67
2018-05-07T16:05:23.720Z,28.99
2018-05-07T16:11:18.763Z,21.03
2018-05-07T16:17:13.752Z,26.55
2018-05-07T16:23:08.824Z,40.14
2018-05-07T16:29:03.760Z,22.21
2018-05-07T16:34:58.795Z,23.58
2018-05-07T16:40:53.787Z,40.07
2018-05-07T16:46:48.698Z,22.41
2018-05-07T16:52:43.722Z,24.63
2018-05-07T16:58:38.708Z,34.32
2018-05-07T17:04:33.737Z,24.09
2018-05-07T17:10:28.734Z,19.95
2018-05-07T17:16:23.805Z,21.47
2018-05-07T17:22:18.738Z,16.83
2018-05-07T17:28:13.742Z,19.35
2018-05-07T17:34:08.763Z,22.04
2018-05-07T17:40:03.779Z,18.73
2018-05-07T17:45:58.746Z,22.63
2018-05-07T17:51:53.752Z,30.51
2018-05-07T17:57:48.770Z,22.3
2018-05-07T18:03:43.778Z,24.71
2018-05-07T18:09:38.744Z,65.74
2018-05-07T18:15:33.728Z,18.73
2018-05-07T18:21:28.772Z,17.88
2018-05-07T18:27:23.722Z,22.5
2018-05-07T18:33:18.725Z,23
2018-05-07T18:39:13.754Z,26.51
2018-05-07T18:45:08.728Z,27.21
2018-05-07T18:51:03.751Z,22.15
2018-05-07T18:56:58.760Z,32.11
2018-05-07T19:02:53.744Z,52.11
2018-05-07T19:08:48.773Z,53.19
2018-05-07T19:14:43.809Z,29.98
2018-05-07T19:20:38.852Z,15.97
2018-05-07T19:26:33.765Z,30.06
2018-05-07T19:32:28.771Z,21.66
2018-05-07T19:38:23.786Z,23.4
2018-05-07T19:44:18.802Z,21.48
2018-05-07T19:50:13.778Z,16.2
2018-05-07T19:56:08.775Z,16.55
2018-05-07T20:02:03.741Z,13.94
2018-05-07T20:07:58.738Z,15.1
2018-05-07T20:13:53.790Z,15.87
2018-05-07T20:19:48.737Z,14.03
2018-05-07T20:25:43.770Z,12.87
2018-05-07T20:31:38.758Z,14.66
2018-05-07T20:37:33.821Z,15.57
2018-05-07T20:43:28.754Z,14.24
2018-05-07T20:49:23.781Z,13.58
2018-05-07T20:55:18.785Z,11.96
2018-05-07T21:01:13.792Z,19.33
2018-05-07T21:07:08.779Z,17.51
2018-05-07T21:13:03.792Z,15.13
2018-05-07T21:18:58.801Z,16.94
2018-05-07T21:24:53.759Z,14.54
2018-05-07T21:30:48.803Z,15.38
2018-05-07T21:36:43.758Z,15.03
2018-05-07T21:42:38.780Z,15.28
2018-05-07T21:48:33.808Z,17.35
2018-05-07T21:54:28.789Z,21.52
2018-05-07T22:00:23.799Z,15.25
2018-05-07T22:06:18.770Z,18.25
2018-05-07T22:12:13.908Z,14.75
2018-05-07T22:18:08.786Z,19
2018-05-07T22:24:03.775Z,14.82
2018-05-07T22:29:58.783Z,16.51
2018-05-07T22:35:53.870Z,13.48
2018-05-07T22:41:48.799Z,16.31
2018-05-07T22:47:43.794Z,14.45
2018-05-07T22:53:38.762Z,14.81
2018-05-07T22:59:33.795Z,18.94
2018-05-07T23:05:28.828Z,15.46
2018-05-07T23:11:23.914Z,15.85
2018-05-07T23:17:18.888Z,17.93
2018-05-07T23:23:13.814Z,17.19
2018-05-07T23:29:08.809Z,16.04
2018-05-07T23:35:03.801Z,18.66
2018-05-07T23:40:58.809Z,16.31
2018-05-07T23:46:53.772Z,17.8
2018-05-07T23:52:48.802Z,16.98
2018-05-07T23:58:43.831Z,17.1
